Terminal Aerodrome Forecast
Issued by NWS

Home | Current Version | Previous Version | Text Only | Print | Product List | Glossary Off
Versions: 1 2 3 4 5 6 7 8 9 10 11 12 13

537
FTUS43 KIWX 241130
TAFSBN
TAF
KSBN 241130Z 2412/2512 15004KT P6SM BKN100
     FM241400 21010KT P6SM BKN250
     FM242200 21008KT P6SM VCTS SCT050CB BKN150
     FM250200 22007KT P6SM BKN100=

USA.gov is the U.S. government's official web portal to all federal, state and local government web resources and services.